Willow Bend, West Virginia
Current Conditions -  °F | °C
As of 4:35 AM on Sunday 23 Nov 2014 (Local Time) from KLWB Reporting Station
Overcast Overcast  
Wind Chill: -1°   Ceiling: 10000
Heat Index: -1°   Visibility: 10mi
Dew Point: -5°   Wind: 0mph
Humidity: 76%   Direction: NA
Pressure: 30.2"   Gusts: NA
Location:  37.5611°N, 80.5102°W
Report Text: KLWB 230935Z AUTO 00000KT 10SM OVC100 M01/M05 A3020 RMK AO2 T10121049
Loading
Personal Weather Stations






























Interactive Weather Map New forecast layout! Learn more

10-Day Weather Forecast

Advertisements
Track Severe Weather on mobile